Terminal Aerodrome Forecast
Issued by NWS Nashville, TN

Home | Current Version | Previous Version | Text Only | Print | Product List | Glossary On
Versions: 1 2 3 4 5 6 7 8 9 10 11 12 13
000
FTUS44 KOHX 032320
TAFCSV
TAF
KCSV 032320Z 0400/0424 28003KT P6SM SCT250
     FM040600 00000KT 4SM BR SCT150
      TEMPO 0409/0412 2SM BR SCT003
     FM041400 28008KT P6SM SCT045=

USA.gov is the U.S. government's official web portal to all federal, state and local government web resources and services.